Time;durP1;ratioP1;P1;durP2;ratioP2;P2;SDS_P1;SDS_P2;PMS_P1;PMS_P2;Temp;Humidity;BMP_temperature;BMP_pressure;BME280_temperature;BME280_humidity;BME280_pressure;Samples;Min_cycle;Max_cycle;Signal;HPM_P1;HPM_P2
2022/06/21 00:01:57;;;;;;;22.23;20.70;;;;;;;;;;5034864;28;20423;-78
2022/06/21 00:04:24;;;;;;;23.40;21.70;;;;;;;;;;5034680;28;20415;-78
2022/06/21 00:06:52;;;;;;;23.43;21.53;;;;;;;;;;5034317;28;20419;-78
2022/06/21 00:09:20;;;;;;;22.40;20.90;;;;;;;;;;5034699;28;20452;-78
2022/06/21 00:11:47;;;;;;;22.70;21.00;;;;;;;;;;5034871;28;20443;-78
2022/06/21 00:14:16;;;;;;;22.30;21.00;;;;;;;;;;5034375;28;21136;-78
2022/06/21 00:16:43;;;;;;;21.73;20.23;;;;;;;;;;5034334;28;20443;-78
2022/06/21 00:19:14;;;;;;;22.80;21.40;;;;;;;;;;5034081;28;20478;-78
2022/06/21 00:21:41;;;;;;;22.30;20.60;;;;;;;;;;5034527;28;20422;-78
2022/06/21 00:24:09;;;;;;;22.40;20.90;;;;;;;;;;5034020;28;20444;-78
2022/06/21 00:26:36;;;;;;;22.03;20.60;;;;;;;;;;5034024;28;20910;-78
2022/06/21 00:29:03;;;;;;;22.13;20.80;;;;;;;;;;5034651;28;20471;-78
2022/06/21 00:31:33;;;;;;;22.30;20.77;;;;;;;;;;5034232;28;20419;-78
2022/06/21 00:34:04;;;;;;;22.27;20.70;;;;;;;;;;5034282;28;20443;-78
2022/06/21 00:36:34;;;;;;;22.80;21.20;;;;;;;;;;5034017;28;20447;-78
2022/06/21 00:39:02;;;;;;;23.50;21.80;;;;;;;;;;5033994;28;20515;-78
2022/06/21 00:41:34;;;;;;;22.70;21.10;;;;;;;;;;5034370;28;20440;-78
2022/06/21 00:44:03;;;;;;;22.40;21.10;;;;;;;;;;5035598;28;20440;-78
2022/06/21 00:46:37;;;;;;;22.30;20.70;;;;;;;;;;5037156;28;20459;-78
2022/06/21 00:49:06;;;;;;;21.73;20.27;;;;;;;;;;5034808;28;20411;-78
2022/06/21 00:51:37;;;;;;;21.43;20.13;;;;;;;;;;5033685;28;20443;-78
2022/06/21 00:54:08;;;;;;;22.40;21.00;;;;;;;;;;5034065;28;20411;-78
2022/06/21 00:56:37;;;;;;;22.20;20.90;;;;;;;;;;5033803;28;20463;-78
2022/06/21 00:59:16;;;;;;;21.53;20.37;;;;;;;;;;5033424;28;20461;-78
2022/06/21 01:01:45;;;;;;;22.13;20.83;;;;;;;;;;5033670;28;20444;-78
2022/06/21 01:04:16;;;;;;;22.40;20.70;;;;;;;;;;5033833;28;20811;-78
2022/06/21 01:06:45;;;;;;;22.73;20.90;;;;;;;;;;5033737;28;20512;-78
2022/06/21 01:09:14;;;;;;;22.27;20.67;;;;;;;;;;5033741;28;20451;-78
2022/06/21 01:11:43;;;;;;;21.80;20.40;;;;;;;;;;5033638;28;20794;-78
2022/06/21 01:14:11;;;;;;;21.80;20.00;;;;;;;;;;5033476;28;20451;-78
2022/06/21 01:16:40;;;;;;;21.40;20.00;;;;;;;;;;5033580;28;20451;-78
2022/06/21 01:19:12;;;;;;;22.53;20.80;;;;;;;;;;5033599;28;20565;-78
2022/06/21 01:21:41;;;;;;;22.30;20.60;;;;;;;;;;5033676;28;20429;-78
2022/06/21 01:24:11;;;;;;;20.97;19.37;;;;;;;;;;5033479;28;20444;-78
2022/06/21 01:26:53;;;;;;;21.60;20.10;;;;;;;;;;5033104;28;20448;-78
2022/06/21 01:29:25;;;;;;;21.83;20.43;;;;;;;;;;5031687;28;20440;-77
2022/06/21 01:31:53;;;;;;;21.30;19.93;;;;;;;;;;5033375;28;20761;-78
2022/06/21 01:34:22;;;;;;;21.63;20.13;;;;;;;;;;5033575;28;20444;-78
2022/06/21 01:36:51;;;;;;;21.33;20.00;;;;;;;;;;5035748;28;20428;-78
2022/06/21 01:39:21;;;;;;;22.57;20.90;;;;;;;;;;5035314;28;20577;-78
2022/06/21 01:41:51;;;;;;;22.47;20.57;;;;;;;;;;5034750;28;20439;-78
2022/06/21 01:44:23;;;;;;;22.60;20.97;;;;;;;;;;5033385;28;20436;-78
2022/06/21 01:46:52;;;;;;;22.37;21.00;;;;;;;;;;5032272;28;20908;-77
2022/06/21 01:49:21;;;;;;;21.97;20.53;;;;;;;;;;5032847;28;20447;-78
2022/06/21 01:51:50;;;;;;;23.00;21.20;;;;;;;;;;5033345;28;20445;-78
2022/06/21 01:54:19;;;;;;;22.23;20.63;;;;;;;;;;5032611;28;20918;-78
2022/06/21 01:56:47;;;;;;;22.60;21.20;;;;;;;;;;5032961;28;20440;-78
2022/06/21 01:59:18;;;;;;;23.33;21.63;;;;;;;;;;5032807;28;20480;-77
2022/06/21 02:01:48;;;;;;;22.40;20.90;;;;;;;;;;5032558;28;20443;-78
2022/06/21 02:04:20;;;;;;;23.30;21.47;;;;;;;;;;5032606;28;20436;-78
2022/06/21 02:06:48;;;;;;;22.70;21.30;;;;;;;;;;5032366;28;20441;-78
2022/06/21 02:09:18;;;;;;;23.83;21.80;;;;;;;;;;5032849;28;20444;-78
2022/06/21 02:11:47;;;;;;;23.23;21.60;;;;;;;;;;5032548;28;20410;-78
2022/06/21 02:14:31;;;;;;;23.93;22.10;;;;;;;;;;5032735;28;20403;-78
2022/06/21 02:17:07;;;;;;;23.93;21.70;;;;;;;;;;5032376;28;20443;-78
2022/06/21 02:19:38;;;;;;;23.50;21.90;;;;;;;;;;5032560;28;20509;-78
2022/06/21 02:22:07;;;;;;;22.60;21.10;;;;;;;;;;5032348;28;20415;-78
2022/06/21 02:24:34;;;;;;;23.30;21.80;;;;;;;;;;5032266;28;20914;-78
2022/06/21 02:27:04;;;;;;;22.37;21.07;;;;;;;;;;5032296;28;20834;-78
2022/06/21 02:29:32;;;;;;;23.73;22.23;;;;;;;;;;5032804;28;20468;-78
2022/06/21 02:32:00;;;;;;;23.37;21.83;;;;;;;;;;5032644;28;20806;-78
2022/06/21 02:34:30;;;;;;;23.20;21.80;;;;;;;;;;5032451;28;20896;-78
2022/06/21 02:37:00;;;;;;;23.30;21.87;;;;;;;;;;5032078;28;20486;-78
2022/06/21 02:39:28;;;;;;;22.63;21.43;;;;;;;;;;5032391;28;20499;-78
2022/06/21 02:41:57;;;;;;;22.50;21.10;;;;;;;;;;5032613;28;20444;-78
2022/06/21 02:44:26;;;;;;;23.13;21.53;;;;;;;;;;5014549;28;20500;-78
2022/06/21 02:46:55;;;;;;;22.47;20.90;;;;;;;;;;5032214;28;20443;-78
2022/06/21 02:49:24;;;;;;;23.00;21.20;;;;;;;;;;5032118;28;20451;-78
2022/06/21 02:51:55;;;;;;;22.43;20.93;;;;;;;;;;5032435;28;20607;-78
2022/06/21 02:54:25;;;;;;;21.97;20.60;;;;;;;;;;5032170;28;20444;-78
2022/06/21 02:56:55;;;;;;;22.57;21.17;;;;;;;;;;5032172;28;20443;-78
2022/06/21 02:59:23;;;;;;;22.73;21.23;;;;;;;;;;5035539;28;20450;-78
2022/06/21 03:01:55;;;;;;;24.27;22.30;;;;;;;;;;5018160;28;20462;-78
2022/06/21 03:04:25;;;;;;;23.97;22.00;;;;;;;;;;5035589;28;20491;-79
2022/06/21 03:06:52;;;;;;;23.37;21.73;;;;;;;;;;5035651;28;20820;-78
2022/06/21 03:09:22;;;;;;;22.37;20.80;;;;;;;;;;5035865;28;20496;-78
2022/06/21 03:11:53;;;;;;;23.97;22.27;;;;;;;;;;5036011;28;20423;-78
2022/06/21 03:14:23;;;;;;;23.57;21.87;;;;;;;;;;5035540;28;20914;-78
2022/06/21 03:16:52;;;;;;;22.70;21.10;;;;;;;;;;5035664;28;20448;-78
2022/06/21 03:19:23;;;;;;;23.33;21.93;;;;;;;;;;5035518;28;20474;-78
2022/06/21 03:21:50;;;;;;;23.43;21.83;;;;;;;;;;5035779;28;20414;-77
2022/06/21 03:24:19;;;;;;;22.93;21.47;;;;;;;;;;5035382;28;20837;-78
2022/06/21 03:26:50;;;;;;;23.13;21.53;;;;;;;;;;5035617;28;20411;-78
2022/06/21 03:29:19;;;;;;;22.67;21.37;;;;;;;;;;5035547;28;20436;-77
2022/06/21 03:31:49;;;;;;;22.10;20.70;;;;;;;;;;5035137;28;20917;-77
2022/06/21 03:34:18;;;;;;;22.60;21.20;;;;;;;;;;5035439;28;20411;-78
2022/06/21 03:36:46;;;;;;;23.73;21.50;;;;;;;;;;5034846;28;20447;-78
2022/06/21 03:39:14;;;;;;;22.80;21.30;;;;;;;;;;5034821;28;20482;-78
2022/06/21 03:41:45;;;;;;;21.90;20.30;;;;;;;;;;5035122;28;20451;-77
2022/06/21 03:44:18;;;;;;;22.40;20.83;;;;;;;;;;5035507;28;20411;-78
2022/06/21 03:46:52;;;;;;;23.63;22.10;;;;;;;;;;5035730;28;20426;-78
2022/06/21 03:49:24;;;;;;;21.20;19.90;;;;;;;;;;5035628;28;20458;-78
2022/06/21 03:51:52;;;;;;;22.00;20.70;;;;;;;;;;5035094;28;20444;-77
2022/06/21 03:54:22;;;;;;;22.83;21.20;;;;;;;;;;5035411;28;20436;-78
2022/06/21 03:56:51;;;;;;;21.77;20.57;;;;;;;;;;5037262;28;20455;-78
2022/06/21 03:59:23;;;;;;;22.67;21.30;;;;;;;;;;5035526;28;20466;-78
2022/06/21 04:01:54;;;;;;;22.97;21.53;;;;;;;;;;5034789;28;20438;-78
2022/06/21 04:04:25;;;;;;;22.20;20.60;;;;;;;;;;5034993;28;20440;-78
2022/06/21 04:06:55;;;;;;;22.10;20.70;;;;;;;;;;5031324;28;20420;-78
2022/06/21 04:09:28;;;;;;;23.37;21.80;;;;;;;;;;5034113;28;20479;-78
2022/06/21 04:11:59;;;;;;;22.50;21.30;;;;;;;;;;5034377;28;20762;-78
2022/06/21 04:14:31;;;;;;;23.80;22.20;;;;;;;;;;5034737;28;20442;-78
2022/06/21 04:17:04;;;;;;;23.27;21.97;;;;;;;;;;5034657;28;20490;-77
2022/06/21 04:19:34;;;;;;;22.80;21.20;;;;;;;;;;5034156;28;20482;-78
2022/06/21 04:22:03;;;;;;;24.03;22.53;;;;;;;;;;5034211;28;20945;-78
2022/06/21 04:24:34;;;;;;;23.63;22.13;;;;;;;;;;5034098;28;20423;-78
2022/06/21 04:27:02;;;;;;;24.07;22.47;;;;;;;;;;5034408;28;20443;-78
2022/06/21 04:29:33;;;;;;;24.40;22.70;;;;;;;;;;5033949;28;20971;-77
2022/06/21 04:32:04;;;;;;;24.30;22.80;;;;;;;;;;5034437;28;20452;-78
2022/06/21 04:34:33;;;;;;;24.63;22.73;;;;;;;;;;5034159;28;20476;-78
2022/06/21 04:37:03;;;;;;;24.47;22.97;;;;;;;;;;5034070;28;20440;-78
2022/06/21 04:39:32;;;;;;;25.57;23.90;;;;;;;;;;5034017;28;20500;-77
2022/06/21 04:42:01;;;;;;;24.03;22.50;;;;;;;;;;5034902;28;20440;-77
2022/06/21 04:44:31;;;;;;;25.20;23.50;;;;;;;;;;5034587;28;20430;-79
2022/06/21 04:47:01;;;;;;;25.30;23.50;;;;;;;;;;5035028;28;20439;-77
2022/06/21 04:49:34;;;;;;;24.47;22.83;;;;;;;;;;5034240;28;20420;-78
2022/06/21 04:52:10;;;;;;;23.93;22.23;;;;;;;;;;5033960;28;20903;-77
2022/06/21 04:54:38;;;;;;;23.67;22.10;;;;;;;;;;5033719;28;20447;-78
2022/06/21 04:57:09;;;;;;;24.70;23.00;;;;;;;;;;5033871;28;20418;-77
2022/06/21 04:59:39;;;;;;;25.17;23.40;;;;;;;;;;5033823;28;20543;-77
2022/06/21 05:02:07;;;;;;;24.50;23.00;;;;;;;;;;5033856;28;20471;-77
2022/06/21 05:04:38;;;;;;;24.97;23.07;;;;;;;;;;5034044;28;20441;-78
2022/06/21 05:07:08;;;;;;;26.13;24.47;;;;;;;;;;5033537;28;20441;-78
2022/06/21 05:09:36;;;;;;;25.93;24.23;;;;;;;;;;5033467;28;20448;-77
2022/06/21 05:12:06;;;;;;;26.87;25.13;;;;;;;;;;5030730;28;20473;-77
2022/06/21 05:14:36;;;;;;;27.67;25.87;;;;;;;;;;5013899;28;20620;-77
2022/06/21 05:17:07;;;;;;;25.73;23.90;;;;;;;;;;5013842;28;20469;-78
2022/06/21 05:19:38;;;;;;;28.10;26.17;;;;;;;;;;5013308;28;20501;-78
2022/06/21 05:22:07;;;;;;;26.20;24.50;;;;;;;;;;5012848;28;20445;-78
2022/06/21 05:24:35;;;;;;;26.23;24.40;;;;;;;;;;5013855;28;20423;-84
2022/06/21 05:27:05;;;;;;;26.03;24.13;;;;;;;;;;5014172;28;20420;-85
2022/06/21 05:29:37;;;;;;;25.33;23.73;;;;;;;;;;5014220;28;20474;-84
2022/06/21 05:32:05;;;;;;;26.97;24.60;;;;;;;;;;5013928;28;20433;-84
2022/06/21 05:34:35;;;;;;;27.47;25.43;;;;;;;;;;5013836;28;20491;-85
2022/06/21 05:37:06;;;;;;;26.10;24.40;;;;;;;;;;5014198;28;20786;-85
2022/06/21 05:39:50;;;;;;;26.67;24.90;;;;;;;;;;5014230;28;20483;-86
2022/06/21 05:42:18;;;;;;;27.10;25.20;;;;;;;;;;5013727;28;20441;-77
2022/06/21 05:44:53;;;;;;;27.10;25.47;;;;;;;;;;5014129;28;20440;-79
2022/06/21 05:47:23;;;;;;;28.50;26.40;;;;;;;;;;5014358;28;20437;-91
2022/06/21 05:49:51;;;;;;;26.57;24.87;;;;;;;;;;5013328;28;20445;-79
2022/06/21 05:52:22;;;;;;;27.23;25.03;;;;;;;;;;5013062;28;20412;-80
2022/06/21 05:54:51;;;;;;;26.97;24.83;;;;;;;;;;5013969;28;20438;-82
2022/06/21 05:57:22;;;;;;;27.07;25.27;;;;;;;;;;5014351;28;20443;-86
2022/06/21 05:59:50;;;;;;;26.97;25.00;;;;;;;;;;5013960;28;20455;-86
2022/06/21 06:02:19;;;;;;;26.97;25.17;;;;;;;;;;5013827;28;20445;-86
2022/06/21 06:04:49;;;;;;;27.27;25.00;;;;;;;;;;5014109;28;20430;-85
2022/06/21 06:07:18;;;;;;;26.17;24.40;;;;;;;;;;5013325;28;20906;-79
2022/06/21 06:09:49;;;;;;;26.30;24.57;;;;;;;;;;5013698;28;20416;-92
2022/06/21 06:12:22;;;;;;;25.37;23.67;;;;;;;;;;5013370;28;20424;-83
2022/06/21 06:14:51;;;;;;;25.57;23.70;;;;;;;;;;5013019;28;20433;-78
2022/06/21 06:17:23;;;;;;;25.30;23.40;;;;;;;;;;5012830;28;20449;-84
2022/06/21 06:19:53;;;;;;;25.57;23.97;;;;;;;;;;5013248;28;20459;-84
2022/06/21 06:22:23;;;;;;;25.53;23.73;;;;;;;;;;5013935;28;20416;-82
2022/06/21 06:24:55;;;;;;;23.17;21.67;;;;;;;;;;5014615;28;20420;-81
2022/06/21 06:27:30;;;;;;;25.20;23.00;;;;;;;;;;4998777;28;20434;-76
2022/06/21 06:30:01;;;;;;;24.97;23.00;;;;;;;;;;5032549;28;20426;-75
2022/06/21 06:32:31;;;;;;;23.83;22.03;;;;;;;;;;5032596;28;20440;-77
2022/06/21 06:34:58;;;;;;;22.63;21.00;;;;;;;;;;5036448;28;20432;-76
2022/06/21 06:37:30;;;;;;;23.87;21.77;;;;;;;;;;5037674;28;20456;-88
2022/06/21 06:39:59;;;;;;;23.83;22.13;;;;;;;;;;5036999;28;20573;-83
2022/06/21 06:42:27;;;;;;;22.97;21.40;;;;;;;;;;5036254;28;20444;-83
2022/06/21 06:44:56;;;;;;;23.90;22.00;;;;;;;;;;5036584;28;20441;-80
2022/06/21 06:47:28;;;;;;;24.03;22.10;;;;;;;;;;5036051;28;20446;-79
2022/06/21 06:49:57;;;;;;;24.17;21.70;;;;;;;;;;5037331;28;20444;-81
2022/06/21 06:52:26;;;;;;;22.80;21.23;;;;;;;;;;5037555;28;20941;-82
2022/06/21 06:54:57;;;;;;;23.17;21.33;;;;;;;;;;5036622;28;20997;-78
2022/06/21 06:57:29;;;;;;;23.37;21.07;;;;;;;;;;5036654;28;20447;-80
2022/06/21 06:59:56;;;;;;;23.13;21.37;;;;;;;;;;5037575;28;20483;-77
2022/06/21 07:02:26;;;;;;;23.53;21.90;;;;;;;;;;5037366;28;20439;-84
2022/06/21 07:05:00;;;;;;;26.00;24.00;;;;;;;;;;5037397;28;20449;-82
2022/06/21 07:07:31;;;;;;;25.10;23.50;;;;;;;;;;5037370;28;20436;-83
2022/06/21 07:10:02;;;;;;;23.90;21.97;;;;;;;;;;5037274;28;20439;-83
2022/06/21 07:12:31;;;;;;;24.03;22.53;;;;;;;;;;5036628;28;20440;-83
2022/06/21 07:14:59;;;;;;;23.60;22.07;;;;;;;;;;5037632;28;20456;-83
2022/06/21 07:17:29;;;;;;;24.10;22.17;;;;;;;;;;5036441;28;20460;-82
2022/06/21 07:19:57;;;;;;;24.40;22.27;;;;;;;;;;5036055;28;20475;-82
2022/06/21 07:22:27;;;;;;;23.33;21.50;;;;;;;;;;5036125;28;20509;-86
2022/06/21 07:24:57;;;;;;;23.10;21.03;;;;;;;;;;5035729;28;20451;-80
2022/06/21 07:27:27;;;;;;;23.57;21.60;;;;;;;;;;5036071;28;20455;-84
2022/06/21 07:29:58;;;;;;;23.43;21.83;;;;;;;;;;5018018;28;20483;-83
2022/06/21 07:32:28;;;;;;;23.30;21.50;;;;;;;;;;5035631;28;20823;-83
2022/06/21 07:34:58;;;;;;;24.17;22.27;;;;;;;;;;5035310;28;20444;-82
2022/06/21 07:37:28;;;;;;;23.33;21.60;;;;;;;;;;5035318;28;20765;-83
2022/06/21 07:40:00;;;;;;;24.17;22.17;;;;;;;;;;5035194;28;20521;-82
2022/06/21 07:42:30;;;;;;;22.13;20.73;;;;;;;;;;5035595;28;20440;-82
2022/06/21 07:45:00;;;;;;;22.77;21.07;;;;;;;;;;5034207;28;20436;-82
2022/06/21 07:47:32;;;;;;;23.63;21.73;;;;;;;;;;5035156;28;20440;-82
2022/06/21 07:50:02;;;;;;;23.50;21.63;;;;;;;;;;5035490;28;20464;-82
2022/06/21 07:52:33;;;;;;;23.83;22.00;;;;;;;;;;5018335;28;20418;-82
2022/06/21 07:55:02;;;;;;;22.90;21.40;;;;;;;;;;5035372;28;20440;-82
2022/06/21 07:57:31;;;;;;;23.37;21.57;;;;;;;;;;5035182;28;20885;-80
2022/06/21 08:00:03;;;;;;;23.53;21.80;;;;;;;;;;5035583;28;20480;-84
2022/06/21 08:08:05;;;;;;;23.13;21.63;;;;;;;;;;5035283;28;20423;-82
2022/06/21 08:10:35;;;;;;;23.23;21.57;;;;;;;;;;5034986;28;20827;-81
2022/06/21 08:13:02;;;;;;;22.80;21.07;;;;;;;;;;5034503;28;20948;-82
2022/06/21 08:15:34;;;;;;;23.60;21.77;;;;;;;;;;5034965;28;20416;-82
2022/06/21 08:18:04;;;;;;;23.37;21.87;;;;;;;;;;5035638;28;20945;-82
2022/06/21 08:20:33;;;;;;;23.50;21.90;;;;;;;;;;5035552;28;20495;-81
2022/06/21 08:23:04;;;;;;;23.47;21.77;;;;;;;;;;5034977;28;20459;-81
2022/06/21 08:25:35;;;;;;;22.83;21.43;;;;;;;;;;5034884;28;20437;-82
2022/06/21 08:28:07;;;;;;;23.50;21.97;;;;;;;;;;5035127;28;20915;-81
2022/06/21 08:30:39;;;;;;;24.03;22.10;;;;;;;;;;5034446;28;20468;-82
2022/06/21 08:33:08;;;;;;;24.90;23.07;;;;;;;;;;5034785;28;20411;-82
2022/06/21 08:35:37;;;;;;;23.87;22.13;;;;;;;;;;5016668;28;20779;-81
2022/06/21 08:38:08;;;;;;;22.70;21.10;;;;;;;;;;5034755;28;20809;-84
2022/06/21 08:40:50;;;;;;;23.23;21.63;;;;;;;;;;5036336;28;20473;-85
2022/06/21 08:43:28;;;;;;;23.40;21.80;;;;;;;;;;5035324;28;20440;-82
2022/06/21 08:46:13;;;;;;;23.70;21.70;;;;;;;;;;5034688;28;20448;-81
2022/06/21 08:48:56;;;;;;;24.33;22.47;;;;;;;;;;5036127;28;20436;-82
2022/06/21 08:51:42;;;;;;;23.20;21.53;;;;;;;;;;5034845;28;20418;-82
2022/06/21 08:54:14;;;;;;;24.90;23.23;;;;;;;;;;5034309;28;20447;-83
2022/06/21 08:56:46;;;;;;;23.20;21.80;;;;;;;;;;5034284;28;20487;-83
2022/06/21 08:59:19;;;;;;;23.53;22.23;;;;;;;;;;5034235;28;20460;-83
2022/06/21 09:01:51;;;;;;;23.27;21.67;;;;;;;;;;5034109;28;20462;-82
2022/06/21 09:04:32;;;;;;;23.40;21.90;;;;;;;;;;5033897;28;20440;-82
2022/06/21 09:07:20;;;;;;;22.60;21.20;;;;;;;;;;5034042;28;20448;-82
2022/06/21 09:09:55;;;;;;;22.43;20.83;;;;;;;;;;5034062;28;20444;-83
2022/06/21 09:12:29;;;;;;;22.60;21.10;;;;;;;;;;5034004;28;20416;-83
2022/06/21 09:15:17;;;;;;;23.40;21.80;;;;;;;;;;5033964;28;20411;-82
2022/06/21 09:17:50;;;;;;;23.20;21.70;;;;;;;;;;5030552;28;20455;-82
2022/06/21 09:20:25;;;;;;;23.53;21.73;;;;;;;;;;5034129;28;20499;-83
2022/06/21 09:23:00;;;;;;;23.40;21.90;;;;;;;;;;5033654;28;20439;-83
2022/06/21 09:25:29;;;;;;;22.67;21.17;;;;;;;;;;5033913;28;20443;-83
2022/06/21 09:28:00;;;;;;;23.17;21.63;;;;;;;;;;5033977;28;20430;-82
2022/06/21 09:30:31;;;;;;;22.73;21.20;;;;;;;;;;5033521;28;20470;-83
2022/06/21 09:33:02;;;;;;;23.40;21.90;;;;;;;;;;5016027;28;20474;-83
2022/06/21 09:35:33;;;;;;;23.37;21.63;;;;;;;;;;5033396;28;20436;-83
2022/06/21 09:38:07;;;;;;;23.00;21.60;;;;;;;;;;5033115;28;20540;-83
2022/06/21 09:40:38;;;;;;;23.77;22.07;;;;;;;;;;5033406;28;20511;-83
2022/06/21 09:43:11;;;;;;;23.57;22.07;;;;;;;;;;5033201;28;20415;-83
2022/06/21 09:45:45;;;;;;;23.53;22.03;;;;;;;;;;5015393;28;20967;-83
2022/06/21 09:48:18;;;;;;;23.03;21.57;;;;;;;;;;5032904;28;20531;-83
2022/06/21 09:50:52;;;;;;;23.87;22.37;;;;;;;;;;5032963;28;20419;-82
2022/06/21 09:53:23;;;;;;;23.80;22.30;;;;;;;;;;5033115;28;20432;-82
2022/06/21 09:55:54;;;;;;;24.30;22.80;;;;;;;;;;5033146;28;20889;-83
2022/06/21 09:58:26;;;;;;;23.43;22.03;;;;;;;;;;5033141;28;20432;-82
2022/06/21 10:00:57;;;;;;;23.07;21.77;;;;;;;;;;5032829;28;20793;-83
2022/06/21 10:03:33;;;;;;;23.10;21.80;;;;;;;;;;5032856;28;20440;-83
2022/06/21 10:06:03;;;;;;;23.63;22.23;;;;;;;;;;5032815;28;20443;-83
2022/06/21 10:08:45;;;;;;;23.93;22.33;;;;;;;;;;5037633;28;20436;-83
2022/06/21 10:11:17;;;;;;;23.87;22.47;;;;;;;;;;5040160;28;20422;-87
2022/06/21 10:14:02;;;;;;;24.47;22.90;;;;;;;;;;5039602;28;20494;-79
2022/06/21 10:16:48;;;;;;;23.73;22.33;;;;;;;;;;5038927;28;20455;-79
2022/06/21 10:19:23;;;;;;;23.50;22.10;;;;;;;;;;5039293;28;20554;-78
2022/06/21 10:22:00;;;;;;;24.20;22.73;;;;;;;;;;5037701;28;20539;-78
2022/06/21 10:24:36;;;;;;;24.50;23.00;;;;;;;;;;5040486;28;20456;-79
2022/06/21 10:27:08;;;;;;;23.07;21.77;;;;;;;;;;5041410;28;20444;-77
2022/06/21 10:29:47;;;;;;;23.10;21.70;;;;;;;;;;5040206;28;20825;-83
2022/06/21 10:32:21;;;;;;;23.00;21.60;;;;;;;;;;5039107;28;20418;-77
2022/06/21 10:35:04;;;;;;;22.80;21.40;;;;;;;;;;5039487;28;20410;-77
2022/06/21 10:37:37;;;;;;;22.77;21.40;;;;;;;;;;5039523;28;20531;-81
2022/06/21 10:40:21;;;;;;;23.10;21.60;;;;;;;;;;5017974;28;20459;-82
2022/06/21 10:43:07;;;;;;;23.67;22.17;;;;;;;;;;5019263;28;20412;-81
2022/06/21 10:45:46;;;;;;;24.20;22.60;;;;;;;;;;5019334;28;20957;-80
2022/06/21 10:48:24;;;;;;;23.37;21.90;;;;;;;;;;5019650;28;20399;-81
2022/06/21 10:50:56;;;;;;;23.87;22.27;;;;;;;;;;5019564;28;20833;-81
2022/06/21 10:53:45;;;;;;;24.03;22.63;;;;;;;;;;5019759;28;20477;-81
2022/06/21 10:59:20;;;;;;;24.40;23.00;;;;;;;;;;5019871;28;20406;-82
2022/06/21 11:01:49;;;;;;;25.30;23.80;;;;;;;;;;5018988;28;20495;-82
2022/06/21 11:04:27;;;;;;;25.40;23.90;;;;;;;;;;5019016;28;20499;-81
2022/06/21 11:06:58;;;;;;;24.00;22.53;;;;;;;;;;5019262;28;20462;-82
2022/06/21 11:09:29;;;;;;;25.10;23.53;;;;;;;;;;5018960;28;20440;-81
2022/06/21 11:12:52;;;;;;;25.33;23.20;;;;;;;;;;5020093;28;20471;-82
2022/06/21 11:14:54;;;;;;;24.40;22.90;;;;;;;;;;5018597;28;20775;-79
2022/06/21 11:17:27;;;;;;;25.10;23.50;;;;;;;;;;5018712;28;20472;-79
2022/06/21 11:19:57;;;;;;;24.03;22.67;;;;;;;;;;5016586;28;20437;-79
2022/06/21 11:22:33;;;;;;;23.50;22.07;;;;;;;;;;5013430;28;20847;-80
2022/06/21 11:25:08;;;;;;;24.07;22.50;;;;;;;;;;5015217;28;20447;-80
2022/06/21 11:27:42;;;;;;;24.03;22.53;;;;;;;;;;5015399;28;20473;-79
2022/06/21 11:30:12;;;;;;;24.07;22.60;;;;;;;;;;5015733;28;20453;-79
2022/06/21 11:32:45;;;;;;;23.13;21.63;;;;;;;;;;5015416;28;20420;-79
2022/06/21 11:35:16;;;;;;;22.90;21.50;;;;;;;;;;5015423;28;20503;-79
2022/06/21 11:38:01;;;;;;;23.20;21.80;;;;;;;;;;5015153;28;20415;-79
2022/06/21 11:40:34;;;;;;;25.03;23.53;;;;;;;;;;5034021;28;20481;-79
2022/06/21 11:43:05;;;;;;;23.63;22.33;;;;;;;;;;5035207;28;20415;-79
2022/06/21 11:45:46;;;;;;;23.70;22.30;;;;;;;;;;5035225;28;20414;-79
2022/06/21 11:48:40;;;;;;;24.97;23.37;;;;;;;;;;5017318;28;20445;-80
2022/06/21 11:51:20;;;;;;;23.70;22.33;;;;;;;;;;5034965;28;20443;-79
2022/06/21 11:53:54;;;;;;;24.00;22.50;;;;;;;;;;5034941;28;20901;-79
2022/06/21 11:56:25;;;;;;;24.10;22.40;;;;;;;;;;5035264;28;20443;-79
2022/06/21 11:58:58;;;;;;;24.00;22.30;;;;;;;;;;5034843;28;20788;-79
2022/06/21 12:01:28;;;;;;;23.97;22.53;;;;;;;;;;5035039;28;20479;-79
2022/06/21 12:04:01;;;;;;;23.30;21.80;;;;;;;;;;5034955;28;20411;-80
2022/06/21 12:06:31;;;;;;;23.37;22.00;;;;;;;;;;5034820;28;20861;-79
2022/06/21 12:09:02;;;;;;;23.00;21.70;;;;;;;;;;5034956;28;20419;-80
2022/06/21 12:11:35;;;;;;;23.30;21.87;;;;;;;;;;5034961;28;20443;-79
2022/06/21 12:14:11;;;;;;;23.60;22.20;;;;;;;;;;5034411;28;20440;-79
2022/06/21 12:16:42;;;;;;;23.80;22.40;;;;;;;;;;5034475;28;20419;-79
2022/06/21 12:19:18;;;;;;;23.33;21.93;;;;;;;;;;5034795;28;20572;-80
2022/06/21 12:21:48;;;;;;;23.53;22.03;;;;;;;;;;5034278;28;20488;-79
2022/06/21 12:24:17;;;;;;;24.00;22.47;;;;;;;;;;5034821;28;20415;-79
2022/06/21 12:26:45;;;;;;;23.77;22.37;;;;;;;;;;5034316;28;20444;-80
2022/06/21 12:29:16;;;;;;;24.27;22.77;;;;;;;;;;5034428;28;20458;-79
2022/06/21 12:31:48;;;;;;;23.47;22.03;;;;;;;;;;5033698;28;20431;-79
2022/06/21 12:34:17;;;;;;;23.03;21.53;;;;;;;;;;5034315;28;20447;-79
2022/06/21 12:36:46;;;;;;;24.23;22.63;;;;;;;;;;5035296;28;20448;-80
2022/06/21 12:39:18;;;;;;;23.67;22.27;;;;;;;;;;5034601;28;20503;-80
2022/06/21 12:41:53;;;;;;;22.90;21.60;;;;;;;;;;5034098;28;20540;-80
2022/06/21 12:44:28;;;;;;;23.57;22.13;;;;;;;;;;5034252;28;20443;-80
2022/06/21 12:47:01;;;;;;;24.30;22.50;;;;;;;;;;5034178;28;20418;-80
2022/06/21 12:49:37;;;;;;;24.67;23.07;;;;;;;;;;5034297;28;20440;-80
2022/06/21 12:52:07;;;;;;;24.30;22.60;;;;;;;;;;5033864;28;20418;-79
2022/06/21 12:54:52;;;;;;;23.80;22.17;;;;;;;;;;5033941;28;20447;-79
2022/06/21 12:57:40;;;;;;;23.47;21.97;;;;;;;;;;5033905;28;20447;-80
2022/06/21 13:00:17;;;;;;;22.60;21.20;;;;;;;;;;5033851;28;20406;-80
2022/06/21 13:03:02;;;;;;;23.27;21.57;;;;;;;;;;5033780;28;20798;-79
2022/06/21 13:05:38;;;;;;;24.10;22.50;;;;;;;;;;5034023;28;20441;-80
2022/06/21 13:08:19;;;;;;;24.90;23.17;;;;;;;;;;5033863;28;20475;-79
2022/06/21 13:10:50;;;;;;;24.63;23.03;;;;;;;;;;5033824;28;20418;-80
2022/06/21 13:13:27;;;;;;;23.27;21.77;;;;;;;;;;5033974;28;20512;-80
2022/06/21 13:16:03;;;;;;;24.10;22.50;;;;;;;;;;5033331;28;20773;-80
2022/06/21 13:18:48;;;;;;;24.60;22.90;;;;;;;;;;5033184;28;20562;-80
2022/06/21 13:21:19;;;;;;;24.03;22.43;;;;;;;;;;5032879;28;20487;-80
2022/06/21 13:23:52;;;;;;;24.33;22.83;;;;;;;;;;5034896;28;20432;-80
2022/06/21 13:26:25;;;;;;;23.97;22.23;;;;;;;;;;5035714;28;20787;-80
2022/06/21 13:29:05;;;;;;;25.07;23.47;;;;;;;;;;5033367;28;20419;-79
2022/06/21 13:31:38;;;;;;;24.07;22.57;;;;;;;;;;5033069;28;20450;-79
2022/06/21 13:34:06;;;;;;;24.33;22.47;;;;;;;;;;5033002;28;20418;-80
2022/06/21 13:36:39;;;;;;;25.40;23.43;;;;;;;;;;5033212;28;20952;-81
2022/06/21 13:39:15;;;;;;;24.77;22.87;;;;;;;;;;5033017;28;20491;-81
2022/06/21 13:44:34;;;;;;;26.37;24.37;;;;;;;;;;5033484;28;20879;-81
2022/06/21 13:47:05;;;;;;;25.37;23.77;;;;;;;;;;5033453;28;20491;-80
2022/06/21 13:49:34;;;;;;;24.10;22.60;;;;;;;;;;5033952;28;20447;-79
2022/06/21 13:52:07;;;;;;;24.77;23.07;;;;;;;;;;5033826;28;20456;-80
2022/06/21 13:54:37;;;;;;;24.00;22.50;;;;;;;;;;5045245;28;20426;-80
2022/06/21 13:57:10;;;;;;;24.20;22.70;;;;;;;;;;5041622;28;20481;-80
2022/06/21 13:59:40;;;;;;;24.27;22.67;;;;;;;;;;5041299;28;20443;-80
2022/06/21 14:02:14;;;;;;;24.70;22.90;;;;;;;;;;5035522;28;20483;-80
2022/06/21 14:04:49;;;;;;;24.20;22.70;;;;;;;;;;5033208;28;20444;-80
2022/06/21 14:07:20;;;;;;;23.70;22.30;;;;;;;;;;5032914;28;20451;-79
2022/06/21 14:09:51;;;;;;;23.70;22.20;;;;;;;;;;5032934;28;20411;-80
2022/06/21 14:12:21;;;;;;;24.00;22.27;;;;;;;;;;5032604;28;20414;-80
2022/06/21 14:14:51;;;;;;;23.63;21.80;;;;;;;;;;5032906;28;20452;-81
2022/06/21 14:17:24;;;;;;;24.37;22.53;;;;;;;;;;5032776;28;20482;-80
2022/06/21 14:19:59;;;;;;;24.43;22.83;;;;;;;;;;5032862;28;20419;-80
2022/06/21 14:22:30;;;;;;;24.67;22.97;;;;;;;;;;5032679;28;20482;-80
2022/06/21 14:24:59;;;;;;;23.90;22.37;;;;;;;;;;5032863;28;20456;-80
2022/06/21 14:27:29;;;;;;;24.17;22.57;;;;;;;;;;5032738;28;20446;-81
2022/06/21 14:30:00;;;;;;;25.17;23.37;;;;;;;;;;5032815;28;20441;-80
2022/06/21 14:32:32;;;;;;;23.93;22.53;;;;;;;;;;5032856;28;20857;-80
2022/06/21 14:35:04;;;;;;;24.50;22.77;;;;;;;;;;5032924;28;20502;-80
2022/06/21 14:37:37;;;;;;;23.87;22.27;;;;;;;;;;5020764;28;20811;-81
2022/06/21 14:40:08;;;;;;;24.63;23.03;;;;;;;;;;5012464;28;21080;-80
2022/06/21 14:42:40;;;;;;;25.13;23.53;;;;;;;;;;5012477;28;20465;-80
2022/06/21 14:45:11;;;;;;;24.67;22.93;;;;;;;;;;5012612;28;20430;-80
2022/06/21 14:47:43;;;;;;;24.27;22.77;;;;;;;;;;5012536;28;20795;-80
2022/06/21 14:50:14;;;;;;;25.03;23.20;;;;;;;;;;4995109;28;20427;-81
2022/06/21 14:52:57;;;;;;;24.50;22.83;;;;;;;;;;5012850;28;20415;-81
2022/06/21 14:55:31;;;;;;;24.53;22.93;;;;;;;;;;5015917;28;20434;-81